Terminal Aerodrome Forecast
Issued by NWS

Home | Current Version | Previous Version | Text Only | Print | Product List | Glossary On
Versions: 1 2 3 4 5 6 7 8 9 10 11 12 13 14 15 16 17 18 19
247
FTUS42 KJAX 282323
TAFCRG
TAF
KCRG 282323Z 2900/2924 05009KT P6SM SCT025
     FM291400 07012G20KT P6SM VCSH SCT020 BKN035=

USA.gov is the U.S. government's official web portal to all federal, state and local government web resources and services.